createdAt,value
2023-05-11T00:00:31.531Z,52.30
2023-05-11T00:01:06.039Z,52.90
2023-05-11T00:01:38.549Z,52.40
2023-05-11T00:02:12.808Z,52.50
2023-05-11T00:02:46.467Z,52.40
2023-05-11T00:03:19.297Z,52.60
2023-05-11T00:03:52.079Z,52.70
2023-05-11T00:04:24.853Z,52.80
2023-05-11T00:04:58.598Z,52.80
2023-05-11T00:05:31.337Z,52.80
2023-05-11T00:06:05.152Z,52.70
2023-05-11T00:06:38.057Z,52.60
2023-05-11T00:07:10.720Z,52.60
2023-05-11T00:07:43.384Z,52.50
2023-05-11T00:08:17.578Z,52.60
2023-05-11T00:08:51.976Z,52.50
2023-05-11T00:09:24.578Z,52.50
2023-05-11T00:09:58.215Z,52.40
2023-05-11T00:10:31.210Z,52.50
2023-05-11T00:11:07.465Z,52.70
2023-05-11T00:11:41.167Z,52.80
2023-05-11T00:12:14.289Z,52.80
2023-05-11T00:12:46.815Z,53.00
2023-05-11T00:13:21.748Z,52.90
2023-05-11T00:13:55.746Z,52.90
2023-05-11T00:14:28.440Z,52.90
2023-05-11T00:15:02.074Z,52.90
2023-05-11T00:15:38.325Z,52.80
2023-05-11T00:16:11.440Z,52.90
2023-05-11T00:16:45.181Z,53.00
2023-05-11T00:17:19.573Z,53.10
2023-05-11T00:17:52.157Z,53.10
2023-05-11T00:18:25.976Z,53.10
2023-05-11T00:18:58.721Z,53.20
2023-05-11T00:19:31.790Z,53.40
2023-05-11T00:20:06.408Z,53.30
2023-05-11T00:20:38.962Z,53.20
2023-05-11T00:21:11.530Z,53.10
2023-05-11T00:21:45.274Z,53.10
2023-05-11T00:22:18.035Z,53.10
2023-05-11T00:22:50.599Z,53.30
2023-05-11T00:23:23.239Z,53.30
2023-05-11T00:23:57.127Z,53.30
2023-05-11T00:24:30.054Z,53.40
2023-05-11T00:25:02.740Z,53.50
2023-05-11T00:25:36.482Z,53.50
2023-05-11T00:26:09.101Z,53.60
2023-05-11T00:26:42.371Z,53.60
2023-05-11T00:27:15.943Z,53.60
2023-05-11T00:27:48.737Z,53.50
2023-05-11T00:28:21.330Z,53.50
2023-05-11T00:28:57.542Z,53.50
2023-05-11T00:29:30.112Z,53.50
2023-05-11T00:30:02.754Z,53.50
2023-05-11T00:30:36.484Z,53.40
2023-05-11T00:31:09.114Z,53.60
2023-05-11T00:31:42.267Z,53.70
2023-05-11T00:32:15.912Z,53.80
2023-05-11T00:32:49.288Z,53.90
2023-05-11T00:33:22.338Z,53.90
2023-05-11T00:33:56.762Z,54.00
2023-05-11T00:34:30.360Z,54.10
2023-05-11T00:35:03.024Z,54.20
2023-05-11T00:35:36.500Z,54.30
2023-05-11T00:36:10.421Z,54.30
2023-05-11T00:36:43.716Z,54.30
2023-05-11T00:37:16.295Z,54.30
2023-05-11T00:37:49.859Z,54.30
2023-05-11T00:38:22.359Z,54.20
2023-05-11T00:38:55.328Z,54.30
2023-05-11T00:39:28.999Z,54.30
2023-05-11T00:40:01.631Z,54.30
2023-05-11T00:40:34.496Z,54.40
2023-05-11T00:41:07.397Z,54.40
2023-05-11T00:41:41.345Z,54.50
2023-05-11T00:42:14.035Z,54.40
2023-05-11T00:42:46.608Z,55.00
2023-05-11T00:43:20.149Z,54.50
2023-05-11T00:43:52.739Z,55.10
2023-05-11T00:44:27.069Z,54.70
2023-05-11T00:45:00.604Z,54.70
2023-05-11T00:45:33.490Z,54.80
2023-05-11T00:46:06.855Z,54.80
2023-05-11T00:46:40.792Z,54.80
2023-05-11T00:47:13.744Z,54.70
2023-05-11T00:47:46.901Z,54.70
2023-05-11T00:48:20.600Z,54.60
2023-05-11T00:48:55.792Z,54.60
2023-05-11T00:49:28.734Z,54.50
2023-05-11T00:50:02.519Z,54.60
2023-05-11T00:50:35.388Z,54.80
2023-05-11T00:51:08.254Z,54.80
2023-05-11T00:51:42.029Z,54.80
2023-05-11T00:52:14.917Z,54.80
2023-05-11T00:52:48.460Z,54.70
2023-05-11T00:53:22.253Z,54.70
2023-05-11T00:53:54.871Z,54.80
2023-05-11T00:54:27.886Z,54.70
2023-05-11T00:55:00.816Z,54.70
2023-05-11T00:55:34.465Z,54.70
2023-05-11T00:56:07.614Z,54.80
2023-05-11T00:56:40.636Z,54.90
2023-05-11T00:57:14.439Z,55.00
2023-05-11T00:57:47.476Z,55.00
2023-05-11T00:58:20.813Z,55.10
2023-05-11T00:58:54.498Z,55.10
2023-05-11T00:59:28.516Z,55.20
2023-05-11T01:00:02.844Z,55.30
2023-05-11T01:00:36.856Z,55.50
2023-05-11T01:01:10.603Z,55.60
2023-05-11T01:01:43.950Z,55.60
2023-05-11T01:02:17.744Z,55.50
2023-05-11T01:02:50.450Z,55.50
2023-05-11T01:03:23.203Z,55.50
2023-05-11T01:03:58.004Z,55.40
2023-05-11T01:04:31.665Z,55.30
2023-05-11T01:05:04.737Z,55.40
2023-05-11T01:05:49.607Z,55.50
2023-05-11T01:06:29.517Z,55.60
2023-05-11T01:07:11.334Z,55.70
2023-05-11T01:07:55.738Z,55.70
2023-05-11T01:08:39.413Z,55.90
2023-05-11T01:09:21.662Z,55.90
2023-05-11T01:10:02.789Z,55.90
2023-05-11T01:10:45.911Z,56.00
2023-05-11T01:11:25.115Z,56.00
2023-05-11T01:12:07.544Z,56.10
2023-05-11T01:12:48.313Z,56.20
2023-05-11T01:13:28.576Z,56.30
2023-05-11T01:14:16.866Z,56.40
2023-05-11T01:15:01.677Z,56.20
2023-05-11T01:15:44.902Z,56.30
2023-05-11T01:16:22.564Z,56.40
2023-05-11T01:17:07.069Z,56.30
2023-05-11T01:18:01.730Z,56.40
2023-05-11T01:18:39.927Z,56.50
2023-05-11T01:19:24.706Z,56.60
2023-05-11T01:20:06.211Z,56.70
2023-05-11T01:20:41.135Z,56.80
2023-05-11T01:21:16.018Z,56.90
2023-05-11T01:21:51.224Z,56.90
2023-05-11T01:22:39.249Z,57.10
2023-05-11T01:23:31.921Z,57.20
2023-05-11T01:24:21.634Z,57.20
2023-05-11T01:25:07.244Z,57.10
2023-05-11T01:25:53.512Z,57.10
2023-05-11T01:26:42.691Z,57.00
2023-05-11T01:27:32.036Z,57.00
2023-05-11T01:28:23.433Z,57.00
2023-05-11T01:29:25.117Z,56.90
2023-05-11T01:30:26.411Z,56.90
2023-05-11T01:31:07.117Z,56.90
2023-05-11T01:31:42.651Z,56.90
2023-05-11T01:32:21.250Z,57.00
2023-05-11T01:32:58.992Z,57.10
2023-05-11T01:33:34.428Z,57.30
2023-05-11T01:34:13.467Z,57.50
2023-05-11T01:34:47.638Z,57.50
2023-05-11T01:35:24.552Z,57.70
2023-05-11T01:36:02.833Z,57.70
2023-05-11T01:36:39.401Z,57.70
2023-05-11T01:37:17.712Z,57.80
2023-05-11T01:37:54.234Z,57.80
2023-05-11T01:38:32.916Z,58.00
2023-05-11T01:39:10.166Z,58.10
2023-05-11T01:39:50.981Z,58.20
2023-05-11T01:40:29.362Z,58.40
2023-05-11T01:41:09.126Z,58.40
2023-05-11T01:41:46.110Z,58.50
2023-05-11T01:42:23.731Z,58.60
2023-05-11T01:43:01.591Z,58.60
2023-05-11T01:43:37.219Z,58.60
2023-05-11T01:44:12.580Z,58.50
2023-05-11T01:44:51.886Z,58.50
2023-05-11T01:45:28.264Z,58.50
2023-05-11T01:46:04.095Z,58.50
2023-05-11T01:46:37.010Z,58.70
2023-05-11T01:47:10.791Z,58.80
2023-05-11T01:47:45.991Z,58.80
2023-05-11T01:48:23.914Z,58.90
2023-05-11T01:48:58.654Z,58.90
2023-05-11T01:49:36.232Z,58.90
2023-05-11T01:50:11.145Z,58.90
2023-05-11T01:50:46.133Z,59.00
2023-05-11T01:51:20.245Z,59.00
2023-05-11T01:51:56.289Z,59.10
2023-05-11T01:52:31.045Z,59.00
2023-05-11T01:53:05.436Z,59.10
2023-05-11T01:53:41.239Z,59.10
2023-05-11T01:54:14.756Z,59.20
2023-05-11T01:54:48.899Z,59.40
2023-05-11T01:55:25.008Z,59.50
2023-05-11T01:55:58.531Z,59.60
2023-05-11T01:56:34.758Z,59.80
2023-05-11T01:57:10.285Z,59.90
2023-05-11T01:57:43.689Z,59.90
2023-05-11T01:58:18.344Z,59.90
2023-05-11T01:58:52.974Z,59.90
2023-05-11T01:59:26.955Z,59.90
2023-05-11T02:00:00.299Z,59.90
2023-05-11T02:00:34.903Z,60.00
2023-05-11T02:01:12.247Z,60.00
2023-05-11T02:01:45.192Z,60.00
2023-05-11T02:02:19.974Z,60.00
2023-05-11T02:02:57.861Z,60.00
2023-05-11T02:03:32.084Z,60.00
2023-05-11T02:04:06.063Z,59.90
2023-05-11T02:04:41.617Z,60.00
2023-05-11T02:05:18.656Z,60.00
2023-05-11T02:05:52.744Z,60.00
2023-05-11T02:06:28.371Z,60.00
2023-05-11T02:07:04.145Z,60.00
2023-05-11T02:07:38.674Z,60.00
2023-05-11T02:08:13.909Z,60.10
2023-05-11T02:08:49.911Z,60.10
2023-05-11T02:09:23.921Z,60.10
2023-05-11T02:09:59.139Z,60.20
2023-05-11T02:10:34.572Z,60.30
2023-05-11T02:11:11.627Z,60.40
2023-05-11T02:11:47.316Z,60.50
2023-05-11T02:12:23.790Z,60.40
2023-05-11T02:12:59.547Z,60.40
2023-05-11T02:13:34.925Z,60.50
2023-05-11T02:14:10.198Z,60.50
2023-05-11T02:14:43.687Z,60.60
2023-05-11T02:15:18.763Z,60.70
2023-05-11T02:15:55.868Z,60.80
2023-05-11T02:16:32.711Z,60.80
2023-05-11T02:17:06.768Z,60.90
2023-05-11T02:17:40.296Z,60.90
2023-05-11T02:18:17.051Z,60.90
2023-05-11T02:18:51.590Z,61.00
2023-05-11T02:19:25.200Z,61.10
2023-05-11T02:19:59.042Z,61.10
2023-05-11T02:20:34.710Z,61.20
2023-05-11T02:21:09.458Z,61.30
2023-05-11T02:21:46.161Z,61.30
2023-05-11T02:22:20.726Z,61.30
2023-05-11T02:22:55.099Z,61.40
2023-05-11T02:23:31.088Z,61.40
2023-05-11T02:24:06.612Z,61.50
2023-05-11T02:24:40.125Z,61.60
2023-05-11T02:25:15.320Z,61.70
2023-05-11T02:25:50.201Z,61.80
2023-05-11T02:26:23.370Z,61.90
2023-05-11T02:26:59.085Z,61.90
2023-05-11T02:27:33.110Z,61.90
2023-05-11T02:28:06.251Z,62.00
2023-05-11T02:28:40.018Z,62.00
2023-05-11T02:29:12.712Z,62.10
2023-05-11T02:29:45.323Z,62.10
2023-05-11T02:30:19.351Z,62.30
2023-05-11T02:30:58.459Z,62.30
2023-05-11T02:31:36.803Z,62.30
2023-05-11T02:32:14.002Z,62.30
2023-05-11T02:32:51.732Z,62.30
2023-05-11T02:33:28.584Z,62.30
2023-05-11T02:34:09.160Z,62.70
2023-05-11T02:34:43.950Z,62.50
2023-05-11T02:35:22.345Z,62.50
2023-05-11T02:35:57.816Z,62.60
2023-05-11T02:36:36.052Z,62.70
2023-05-11T02:37:13.417Z,62.70
2023-05-11T02:37:49.590Z,62.60
2023-05-11T02:38:28.890Z,62.70
2023-05-11T02:39:07.274Z,62.80
2023-05-11T02:39:45.480Z,62.80
2023-05-11T02:40:20.217Z,62.70
2023-05-11T02:40:58.859Z,62.80
2023-05-11T02:41:33.569Z,62.80
2023-05-11T02:42:13.313Z,62.90
2023-05-11T02:42:49.901Z,63.00
2023-05-11T02:43:27.063Z,63.10
2023-05-11T02:44:06.650Z,63.20
2023-05-11T02:44:51.178Z,63.10
2023-05-11T02:45:29.484Z,63.10
2023-05-11T02:46:08.115Z,63.10
2023-05-11T02:46:43.417Z,63.10
2023-05-11T02:47:21.200Z,63.10
2023-05-11T02:47:56.345Z,63.10
2023-05-11T02:48:36.411Z,63.20
2023-05-11T02:49:11.640Z,63.30
2023-05-11T02:49:47.416Z,63.30
2023-05-11T02:50:20.926Z,63.30
2023-05-11T02:50:57.615Z,63.50
2023-05-11T02:51:36.270Z,63.60
2023-05-11T02:52:11.019Z,63.60
2023-05-11T02:52:52.708Z,63.60
2023-05-11T02:53:28.138Z,63.60
2023-05-11T02:54:01.799Z,63.80
2023-05-11T02:54:40.452Z,63.90
2023-05-11T02:55:15.355Z,64.10
2023-05-11T02:55:48.831Z,64.70
2023-05-11T02:56:23.182Z,64.20
2023-05-11T02:56:58.623Z,64.20
2023-05-11T02:57:31.958Z,64.10
2023-05-11T02:58:10.643Z,64.20
2023-05-11T02:58:45.682Z,64.30
2023-05-11T02:59:28.360Z,64.30
2023-05-11T03:00:03.888Z,64.40
2023-05-11T03:00:38.862Z,64.40
2023-05-11T03:01:13.903Z,64.50
2023-05-11T03:01:47.999Z,64.50
2023-05-11T03:02:20.915Z,64.50
2023-05-11T03:02:53.787Z,64.50
2023-05-11T03:03:29.560Z,64.60
2023-05-11T03:04:04.980Z,64.70
2023-05-11T03:04:38.764Z,64.80
2023-05-11T03:05:12.382Z,64.80
2023-05-11T03:05:45.076Z,64.60
2023-05-11T03:06:17.698Z,64.50
2023-05-11T03:06:52.007Z,64.40
2023-05-11T03:07:24.922Z,64.40
2023-05-11T03:07:59.859Z,64.40
2023-05-11T03:08:32.560Z,64.30
2023-05-11T03:09:10.242Z,64.40
2023-05-11T03:09:47.864Z,64.90
2023-05-11T03:10:21.408Z,64.30
2023-05-11T03:10:56.188Z,64.40
2023-05-11T03:11:29.357Z,64.50
2023-05-11T03:12:02.757Z,64.50
2023-05-11T03:12:39.211Z,64.60
2023-05-11T03:13:13.409Z,64.60
2023-05-11T03:13:46.722Z,64.70
2023-05-11T03:14:23.850Z,64.80
2023-05-11T03:14:56.663Z,64.80
2023-05-11T03:15:29.600Z,64.80
2023-05-11T03:16:04.042Z,64.80
2023-05-11T03:16:40.729Z,64.80
2023-05-11T03:17:15.177Z,65.10
2023-05-11T03:17:50.321Z,65.10
2023-05-11T03:18:23.671Z,65.10
2023-05-11T03:18:57.716Z,65.30
2023-05-11T03:19:33.030Z,65.20
2023-05-11T03:20:08.554Z,65.20
2023-05-11T03:20:43.412Z,65.10
2023-05-11T03:21:20.895Z,65.20
2023-05-11T03:21:54.621Z,65.30
2023-05-11T03:22:29.098Z,65.50
2023-05-11T03:23:02.363Z,65.50
2023-05-11T03:23:36.419Z,65.70
2023-05-11T03:24:10.624Z,65.80
2023-05-11T03:24:44.038Z,65.90
2023-05-11T03:25:17.539Z,66.00
2023-05-11T03:25:52.431Z,66.00
2023-05-11T03:26:28.641Z,66.00
2023-05-11T03:27:04.965Z,65.90
2023-05-11T03:27:42.503Z,65.90
2023-05-11T03:28:17.728Z,65.80
2023-05-11T03:29:01.339Z,65.90
2023-05-11T03:29:38.651Z,65.90
2023-05-11T03:30:14.168Z,65.90
2023-05-11T03:30:52.261Z,66.10
2023-05-11T03:31:25.902Z,66.10
2023-05-11T03:32:00.347Z,66.10
2023-05-11T03:32:34.254Z,66.20
2023-05-11T03:33:08.792Z,66.30
2023-05-11T03:33:41.491Z,66.40
2023-05-11T03:34:14.889Z,66.40
2023-05-11T03:34:50.788Z,66.30
2023-05-11T03:35:29.442Z,66.30
2023-05-11T03:36:04.959Z,66.20
2023-05-11T03:36:41.763Z,66.20
2023-05-11T03:37:18.007Z,66.10
2023-05-11T03:37:53.004Z,66.10
2023-05-11T03:38:30.082Z,66.10
2023-05-11T03:39:04.606Z,66.00
2023-05-11T03:39:39.842Z,66.00
2023-05-11T03:40:16.416Z,66.00
2023-05-11T03:40:56.313Z,66.00
2023-05-11T03:41:32.404Z,65.90
2023-05-11T03:42:08.204Z,65.80
2023-05-11T03:42:43.791Z,65.90
2023-05-11T03:43:19.493Z,65.70
2023-05-11T03:43:55.924Z,65.50
2023-05-11T03:44:32.020Z,65.30
2023-05-11T03:45:08.141Z,65.10
2023-05-11T03:45:44.448Z,65.00
2023-05-11T03:46:20.932Z,64.80
2023-05-11T03:46:54.925Z,64.60
2023-05-11T03:47:32.593Z,64.50
2023-05-11T03:48:07.202Z,64.40
2023-05-11T03:48:41.060Z,64.30
2023-05-11T03:49:15.369Z,64.20
2023-05-11T03:49:48.920Z,64.00
2023-05-11T03:50:22.120Z,63.90
2023-05-11T03:50:56.759Z,63.70
2023-05-11T03:51:31.942Z,63.60
2023-05-11T03:52:05.805Z,63.50
2023-05-11T03:52:40.291Z,63.30
2023-05-11T03:53:13.585Z,63.10
2023-05-11T03:53:46.580Z,63.00
2023-05-11T03:54:22.214Z,63.00
2023-05-11T03:54:55.033Z,63.00
2023-05-11T03:55:27.800Z,63.00
2023-05-11T03:56:02.001Z,62.90
2023-05-11T03:56:36.910Z,62.80
2023-05-11T03:57:09.781Z,62.60
2023-05-11T03:57:44.216Z,62.40
2023-05-11T03:58:17.351Z,62.40
2023-05-11T03:58:51.017Z,62.30
2023-05-11T03:59:25.264Z,62.30
2023-05-11T03:59:58.000Z,62.10
2023-05-11T04:00:31.053Z,61.90
2023-05-11T04:01:04.326Z,61.80
2023-05-11T04:01:38.215Z,61.70
2023-05-11T04:02:11.063Z,61.70
2023-05-11T04:02:45.315Z,61.60
2023-05-11T04:03:19.753Z,61.50
2023-05-11T04:03:53.911Z,61.40
2023-05-11T04:04:31.501Z,61.30
2023-05-11T04:05:09.352Z,61.10
2023-05-11T04:05:41.951Z,60.50
2023-05-11T04:06:18.588Z,60.60
2023-05-11T04:06:57.821Z,60.30
2023-05-11T04:07:33.059Z,59.90
2023-05-11T04:08:06.560Z,59.50
2023-05-11T04:08:40.532Z,59.30
2023-05-11T04:09:13.296Z,59.10
2023-05-11T04:09:46.258Z,58.90
2023-05-11T04:10:20.151Z,58.70
2023-05-11T04:10:53.303Z,58.60
2023-05-11T04:11:27.745Z,58.60
2023-05-11T04:12:01.747Z,58.50
2023-05-11T04:12:34.735Z,58.50
2023-05-11T04:13:07.429Z,58.50
2023-05-11T04:13:41.113Z,58.40
2023-05-11T04:14:13.875Z,58.30
2023-05-11T04:14:47.845Z,58.20
2023-05-11T04:15:21.620Z,58.20
2023-05-11T04:15:54.458Z,58.20
2023-05-11T04:16:27.174Z,58.10
2023-05-11T04:17:01.697Z,58.10
2023-05-11T04:17:34.304Z,58.00
2023-05-11T04:18:08.458Z,58.00
2023-05-11T04:18:41.314Z,57.90
2023-05-11T04:19:16.521Z,57.90
2023-05-11T04:19:49.254Z,57.80
2023-05-11T04:20:23.008Z,57.60
2023-05-11T04:20:55.983Z,57.50
2023-05-11T04:21:28.534Z,57.40
2023-05-11T04:22:02.211Z,57.40
2023-05-11T04:22:34.884Z,57.30
2023-05-11T04:23:10.298Z,57.30
2023-05-11T04:23:44.255Z,57.20
2023-05-11T04:24:16.864Z,56.80
2023-05-11T04:24:49.383Z,56.60
2023-05-11T04:25:21.998Z,56.40
2023-05-11T04:25:55.746Z,56.30
2023-05-11T04:26:28.603Z,56.80
2023-05-11T04:27:04.216Z,56.10
2023-05-11T04:27:38.010Z,56.00
2023-05-11T04:28:10.763Z,55.90
2023-05-11T04:28:43.666Z,55.80
2023-05-11T04:29:17.411Z,55.70
2023-05-11T04:29:50.006Z,55.60
2023-05-11T04:30:24.314Z,55.70
2023-05-11T04:30:57.796Z,55.80
2023-05-11T04:31:30.642Z,55.90
2023-05-11T04:32:06.622Z,56.00
2023-05-11T04:32:39.411Z,56.00
2023-05-11T04:33:14.694Z,56.00
2023-05-11T04:33:49.705Z,56.40
2023-05-11T04:34:22.811Z,55.70
2023-05-11T04:34:55.591Z,55.70
2023-05-11T04:35:31.430Z,55.50
2023-05-11T04:36:04.625Z,55.30
2023-05-11T04:36:37.230Z,55.20
2023-05-11T04:37:10.862Z,55.20
2023-05-11T04:37:44.540Z,55.20
2023-05-11T04:38:17.939Z,55.30
2023-05-11T04:38:53.406Z,55.20
2023-05-11T04:39:26.844Z,55.00
2023-05-11T04:39:59.616Z,54.80
2023-05-11T04:40:34.991Z,54.40
2023-05-11T04:41:08.950Z,54.40
2023-05-11T04:41:43.689Z,54.30
2023-05-11T04:42:16.327Z,54.20
2023-05-11T04:42:52.098Z,54.20
2023-05-11T04:43:26.614Z,54.10
2023-05-11T04:44:00.005Z,54.10
2023-05-11T04:44:33.173Z,54.00
2023-05-11T04:45:07.898Z,54.00
2023-05-11T04:45:40.707Z,54.10
2023-05-11T04:46:16.271Z,54.10
2023-05-11T04:46:50.161Z,54.20
2023-05-11T04:47:22.827Z,54.20
2023-05-11T04:47:58.713Z,54.30
2023-05-11T04:48:34.344Z,54.00
2023-05-11T04:49:07.171Z,53.80
2023-05-11T04:49:41.943Z,53.70
2023-05-11T04:50:15.514Z,53.50
2023-05-11T04:50:48.173Z,53.40
2023-05-11T04:51:22.701Z,53.20
2023-05-11T04:51:57.161Z,53.10
2023-05-11T04:52:29.709Z,53.00
2023-05-11T04:53:02.298Z,53.00
2023-05-11T04:53:36.522Z,53.00
2023-05-11T04:54:10.469Z,53.00
2023-05-11T04:54:44.088Z,52.90
2023-05-11T04:55:17.031Z,52.90
2023-05-11T04:55:49.818Z,52.90
2023-05-11T04:56:23.473Z,52.90
2023-05-11T04:56:57.057Z,52.90
2023-05-11T04:57:29.828Z,53.00
2023-05-11T04:58:04.031Z,53.00
2023-05-11T04:58:36.602Z,53.00
2023-05-11T04:59:09.114Z,53.30
2023-05-11T04:59:43.003Z,53.60
2023-05-11T05:01:58.462Z,53.70
2023-05-11T05:02:31.114Z,54.10
2023-05-11T05:03:05.019Z,54.00
2023-05-11T05:03:39.958Z,53.40
2023-05-11T05:04:12.692Z,53.30
2023-05-11T05:04:46.370Z,53.20
2023-05-11T05:05:19.212Z,52.80
2023-05-11T05:05:51.798Z,52.60
2023-05-11T05:06:28.165Z,52.70
2023-05-11T05:07:00.884Z,52.70
2023-05-11T05:07:33.485Z,52.60
2023-05-11T05:08:07.629Z,52.40
2023-05-11T05:08:40.366Z,52.10
2023-05-11T05:09:13.272Z,52.00
2023-05-11T05:09:46.883Z,51.90
2023-05-11T05:10:22.101Z,52.00
2023-05-11T05:10:54.804Z,52.10
2023-05-11T05:11:28.706Z,52.40
2023-05-11T05:12:01.961Z,52.60
2023-05-11T05:12:34.608Z,52.80
2023-05-11T05:13:08.489Z,52.90
2023-05-11T05:13:41.410Z,52.90
2023-05-11T05:14:14.062Z,52.60
2023-05-11T05:14:47.660Z,52.40
2023-05-11T05:15:21.451Z,52.20
2023-05-11T05:15:54.156Z,52.20
2023-05-11T05:16:29.012Z,52.10
2023-05-11T05:17:02.785Z,51.90
2023-05-11T05:17:35.652Z,51.80
2023-05-11T05:18:10.050Z,51.70
2023-05-11T05:18:45.676Z,51.90
2023-05-11T05:19:18.410Z,52.00
2023-05-11T05:19:52.011Z,52.10
2023-05-11T05:20:24.609Z,52.30
2023-05-11T05:20:57.210Z,52.30
2023-05-11T05:21:32.432Z,52.30
2023-05-11T05:22:05.521Z,52.40
2023-05-11T05:22:38.477Z,52.40
2023-05-11T05:23:12.381Z,52.30
2023-05-11T05:23:44.887Z,52.30
2023-05-11T05:24:17.499Z,52.30
2023-05-11T05:24:50.461Z,52.40
2023-05-11T05:25:24.220Z,52.40
2023-05-11T05:25:56.791Z,52.30
2023-05-11T05:26:29.819Z,52.10
2023-05-11T05:27:04.124Z,52.10
2023-05-11T05:27:36.975Z,52.20
2023-05-11T05:28:12.877Z,52.20
2023-05-11T05:28:46.514Z,52.30
2023-05-11T05:29:21.190Z,52.40
2023-05-11T05:29:54.492Z,52.50
2023-05-11T05:30:30.499Z,52.60
2023-05-11T05:31:03.184Z,52.50
2023-05-11T05:31:36.160Z,52.50
2023-05-11T05:32:09.903Z,52.40
2023-05-11T05:32:42.731Z,52.30
2023-05-11T05:33:15.878Z,52.40
2023-05-11T05:33:51.201Z,52.60
2023-05-11T05:34:24.078Z,52.70
2023-05-11T05:34:56.657Z,52.70
2023-05-11T05:35:30.290Z,53.10
2023-05-11T05:36:03.513Z,53.40
2023-05-11T05:36:36.438Z,53.30
2023-05-11T05:37:10.098Z,53.70
2023-05-11T05:37:42.750Z,53.80
2023-05-11T05:38:15.552Z,54.10
2023-05-11T05:38:51.185Z,53.90
2023-05-11T05:39:24.792Z,53.80
2023-05-11T05:40:00.592Z,53.90
2023-05-11T05:40:37.581Z,53.90
2023-05-11T05:41:10.255Z,53.40
2023-05-11T05:41:45.941Z,53.00
2023-05-11T05:42:20.078Z,53.30
2023-05-11T05:42:53.098Z,52.60
2023-05-11T05:43:30.458Z,52.50
2023-05-11T05:44:04.148Z,52.70
2023-05-11T05:44:37.598Z,52.70
2023-05-11T05:45:14.560Z,52.50
2023-05-11T05:45:47.681Z,52.50
2023-05-11T05:46:21.795Z,52.50
2023-05-11T05:46:55.405Z,52.40
2023-05-11T05:47:30.534Z,52.50
2023-05-11T05:48:06.268Z,52.50
2023-05-11T05:48:39.840Z,52.60
2023-05-11T05:49:15.144Z,52.60
2023-05-11T05:49:48.406Z,52.70
2023-05-11T05:50:20.997Z,52.70
2023-05-11T05:50:54.846Z,52.80
2023-05-11T05:51:27.523Z,53.00
2023-05-11T05:52:00.498Z,53.10
2023-05-11T05:52:34.360Z,53.10
2023-05-11T05:53:08.138Z,53.20
2023-05-11T05:53:41.759Z,53.20
2023-05-11T05:54:16.471Z,53.10
2023-05-11T05:54:49.383Z,52.80
2023-05-11T05:55:22.583Z,52.30
2023-05-11T05:55:57.286Z,52.10
2023-05-11T05:56:30.225Z,51.70
2023-05-11T05:57:02.766Z,51.50
2023-05-11T05:57:36.778Z,51.20
2023-05-11T05:58:10.233Z,51.10
2023-05-11T05:58:43.583Z,50.80
2023-05-11T05:59:19.707Z,50.60
2023-05-11T05:59:52.371Z,50.00
2023-05-11T06:00:26.201Z,49.80
2023-05-11T06:01:08.210Z,49.80
2023-05-11T06:01:46.154Z,49.90
2023-05-11T06:02:20.612Z,49.70
2023-05-11T06:02:54.922Z,49.50
2023-05-11T06:03:31.585Z,49.30
2023-05-11T06:04:40.175Z,48.30
2023-05-11T06:05:12.873Z,48.50
2023-05-11T06:05:49.370Z,48.40
2023-05-11T06:06:21.954Z,48.40
2023-05-11T06:06:56.120Z,48.40
2023-05-11T06:07:30.381Z,48.70
2023-05-11T06:08:43.580Z,47.60
2023-05-11T06:09:17.625Z,47.20
2023-05-11T06:09:53.110Z,47.20
2023-05-11T06:10:26.211Z,47.10
2023-05-11T06:10:59.861Z,47.10
2023-05-11T06:11:32.445Z,47.10
2023-05-11T06:12:06.266Z,47.00
2023-05-11T06:12:42.728Z,47.10
2023-05-11T06:13:15.859Z,47.30
2023-05-11T06:13:52.093Z,47.10
2023-05-11T06:14:25.043Z,46.90
2023-05-11T06:14:58.362Z,46.80
2023-05-11T06:15:32.457Z,46.70
2023-05-11T06:16:13.262Z,46.80
2023-05-11T06:16:47.076Z,46.70
2023-05-11T06:17:19.750Z,46.80
2023-05-11T06:17:53.424Z,46.80
2023-05-11T06:18:26.511Z,46.70
2023-05-11T06:19:00.932Z,46.60
2023-05-11T06:19:34.385Z,46.40
2023-05-11T06:20:11.217Z,46.30
2023-05-11T06:20:43.722Z,46.10
2023-05-11T06:21:18.881Z,46.20
2023-05-11T06:21:51.663Z,46.20
2023-05-11T06:22:25.125Z,46.20
2023-05-11T06:22:58.904Z,46.10
2023-05-11T06:23:32.047Z,46.10
2023-05-11T06:24:07.216Z,46.00
2023-05-11T06:24:41.344Z,46.00
2023-05-11T06:25:14.112Z,45.80
2023-05-11T06:25:47.857Z,45.90
2023-05-11T06:26:21.517Z,46.00
2023-05-11T06:26:55.207Z,46.00
2023-05-11T06:27:29.691Z,46.50
2023-05-11T06:28:03.658Z,45.90
2023-05-11T06:28:36.520Z,45.80
2023-05-11T06:29:13.480Z,45.80
2023-05-11T06:29:46.940Z,45.80
2023-05-11T06:30:20.809Z,45.70
2023-05-11T06:30:59.323Z,45.70
2023-05-11T06:31:34.451Z,45.80
2023-05-11T06:32:07.558Z,45.90
2023-05-11T06:32:41.405Z,46.10
2023-05-11T06:33:14.516Z,46.10
2023-05-11T06:33:47.594Z,46.60
2023-05-11T06:34:28.539Z,45.90
2023-05-11T06:36:18.223Z,45.70
2023-05-11T06:36:51.819Z,45.90
2023-05-11T06:37:24.479Z,45.80
2023-05-11T06:37:58.475Z,45.80
2023-05-11T06:38:31.573Z,45.50
2023-05-11T06:39:06.964Z,45.20
2023-05-11T06:41:26.909Z,44.90
2023-05-11T06:43:15.726Z,44.40
2023-05-11T06:43:52.128Z,43.70
2023-05-11T06:44:34.289Z,43.30
2023-05-11T06:45:08.478Z,43.30
2023-05-11T08:46:03.362Z,34.60
2023-05-11T08:48:31.699Z,36.20
2023-05-11T08:49:04.404Z,36.40
2023-05-11T08:49:37.595Z,36.50
2023-05-11T08:50:11.868Z,36.60
2023-05-11T08:50:45.800Z,36.80
2023-05-11T08:51:19.639Z,37.00
2023-05-11T08:51:53.800Z,37.00
2023-05-11T08:52:27.836Z,37.00
2023-05-11T08:53:00.621Z,37.30
2023-05-11T08:53:34.228Z,37.80
2023-05-11T08:54:07.562Z,37.60
2023-05-11T08:54:40.199Z,37.50
2023-05-11T08:55:14.188Z,38.00
2023-05-11T08:55:48.091Z,37.30
2023-05-11T08:56:24.090Z,37.00
2023-05-11T08:57:32.319Z,37.10
2023-05-11T08:58:08.256Z,37.00
2023-05-11T08:58:43.157Z,36.90
2023-05-11T08:59:16.085Z,37.60
2023-05-11T09:13:32.051Z,36.40
2023-05-11T09:14:05.828Z,37.20
2023-05-11T09:14:38.440Z,37.40
2023-05-11T09:15:13.105Z,36.80
2023-05-11T09:15:46.721Z,36.60
2023-05-11T09:16:32.895Z,36.60
2023-05-11T09:17:10.219Z,36.60
2023-05-11T09:17:42.867Z,36.50
2023-05-11T09:18:15.549Z,36.50
2023-05-11T09:18:50.893Z,36.40
2023-05-11T09:19:23.410Z,36.80
2023-05-11T09:20:00.694Z,36.10
2023-05-11T09:20:35.482Z,36.30
2023-05-11T09:21:08.138Z,36.40
2023-05-11T09:21:40.654Z,36.50
2023-05-11T09:22:15.804Z,36.50
2023-05-11T09:22:48.749Z,36.40
2023-05-11T09:23:26.628Z,36.40
2023-05-11T09:24:00.884Z,36.50
2023-05-11T09:24:33.613Z,36.60
2023-05-11T09:25:07.982Z,36.60
2023-05-11T09:25:40.945Z,36.70
2023-05-11T09:26:18.337Z,36.30
2023-05-11T09:27:05.980Z,36.30
2023-05-11T09:27:43.468Z,36.40
2023-05-11T09:28:25.459Z,36.30
2023-05-11T09:29:03.069Z,36.10
2023-05-11T09:29:36.521Z,36.20
2023-05-11T09:30:21.677Z,36.20
2023-05-11T09:30:55.873Z,36.20
2023-05-11T09:31:39.692Z,36.80
2023-05-11T09:32:12.726Z,36.50
2023-05-11T09:32:51.005Z,36.40
2023-05-11T09:33:24.800Z,36.30
2023-05-11T09:34:14.231Z,36.20
2023-05-11T09:34:46.870Z,36.20
2023-05-11T09:35:22.130Z,35.90
2023-05-11T09:35:54.864Z,35.80
2023-05-11T09:36:28.477Z,35.70
2023-05-11T09:37:01.205Z,35.80
2023-05-11T09:37:35.253Z,35.60
2023-05-11T09:38:10.671Z,35.60
2023-05-11T09:38:43.495Z,35.40
2023-05-11T09:39:29.303Z,35.20
2023-05-11T09:40:52.487Z,34.60
2023-05-11T09:41:26.425Z,34.60
2023-05-11T09:42:15.821Z,34.70
2023-05-11T09:42:49.469Z,34.90
2023-05-11T09:43:23.894Z,34.90
2023-05-11T09:44:06.236Z,34.80
2023-05-11T09:44:41.737Z,35.00
2023-05-11T09:45:15.636Z,35.00
2023-05-11T09:45:50.205Z,35.10
2023-05-11T09:46:23.814Z,35.20
2023-05-11T09:47:11.922Z,35.30
2023-05-11T09:47:47.676Z,35.40
2023-05-11T09:48:27.147Z,35.40
2023-05-11T09:49:01.670Z,35.60
2023-05-11T09:49:34.885Z,35.70
2023-05-11T09:50:18.810Z,35.80
2023-05-11T09:51:04.126Z,35.90
2023-05-11T09:51:39.044Z,36.00
2023-05-11T09:52:12.174Z,36.00
2023-05-11T09:52:51.393Z,35.90
2023-05-11T09:53:36.391Z,35.70
2023-05-11T09:54:19.530Z,35.60
2023-05-11T09:54:53.470Z,35.40
2023-05-11T09:55:26.311Z,35.40
2023-05-11T09:55:58.888Z,35.50
2023-05-11T09:56:47.355Z,35.80
2023-05-11T09:57:24.842Z,35.90